Main page
METAR-TAF:

METAR-TAF

Airports :

General Wayne A. Downing Peoria International Airport

Peoria, Illinois, United States

latitude: 40-40-03N, longitude: 089-41-02W, elevation: 659 ft

Current weather observation

The report was made 59 minutes ago, at 19:54 UTC
Wind 12 mph from the North/Northwest with gusts up to 18 mph
Temperature 25°F
Humidity 39%
Pressure 30.71 in. Hg
Visibility: 10 miles
Clear sky

METAR: KPIA 201954Z 33010G16KT 10SM CLR M04/M16 A3071 RMK AO2 SLP410 T10441156 $

Time: 14:53 (20:53 UTC)

Forecast

The report was made 3 hours and 20 minutes ago, at 17:33 UTC
Forecast valid from 20 at 18 UTC to 21 at 18 UTC
Wind 13 mph from the North
Visibility: 6 miles
Clear sky
From 21 at 0100 UTC
Wind 5 mph from variable directions
Visibility: 6 miles
Clear sky
From 21 at 1400 UTC
Wind 7 mph from the Southwest
Visibility: 6 miles
Clear sky

TAF: KPIA 201733Z 2018/2118 01011KT P6SM SKC FM210100 VRB04KT P6SM SKC FM211400 22006KT P6SM SKC

Weather observations and forecasts of more than 4000 airports (METAR and TAF reports).

The available stations are represented by yellow and red dots on the map.

Hover mouse over dot to see the name of the station.

Then click to see weather observations and forecasts.

To change the map : click on the green buttons with a black cross to zoom in, on the green button with a dash to zoom out, or on the green arrows for adjacent maps.


METAR-TAF: